Time;durP1;ratioP1;P1;durP2;ratioP2;P2;SDS_P1;SDS_P2;PMS_P1;PMS_P2;Temp;Humidity;BMP_temperature;BMP_pressure;BME280_temperature;BME280_humidity;BME280_pressure;Samples;Min_cycle;Max_cycle;Signal;HPM_P1;HPM_P2
2022/07/15 00:02:10;;;;;;;4.13;1.83;;;;;;;;;;5068459;28;20552;-84
2022/07/15 00:04:36;;;;;;;4.13;1.90;;;;;;;;;;5066703;28;20024;-85
2022/07/15 00:07:02;;;;;;;4.50;2.10;;;;;;;;;;5068714;28;20028;-84
2022/07/15 00:12:13;;;;;;;4.45;1.83;;;;;;;;;;5082241;28;20035;-85
2022/07/15 00:14:40;;;;;;;4.57;1.83;;;;;;;;;;5082317;28;20029;-85
2022/07/15 00:17:06;;;;;;;4.30;1.90;;;;;;;;;;5081273;28;20092;-84
2022/07/15 00:19:33;;;;;;;3.97;1.80;;;;;;;;;;5068435;28;20089;-84
2022/07/15 00:21:59;;;;;;;3.95;1.70;;;;;;;;;;5062708;28;20051;-84
2022/07/15 00:24:26;;;;;;;3.70;1.83;;;;;;;;;;5061238;28;20478;-84
2022/07/15 00:26:52;;;;;;;3.80;1.83;;;;;;;;;;5068125;28;20112;-84
2022/07/15 00:29:18;;;;;;;4.05;1.92;;;;;;;;;;5066706;28;20395;-84
2022/07/15 00:31:44;;;;;;;3.97;1.77;;;;;;;;;;5072566;28;20033;-84
2022/07/15 00:34:10;;;;;;;5.50;1.70;;;;;;;;;;5070956;28;20123;-83
2022/07/15 00:36:36;;;;;;;4.20;1.83;;;;;;;;;;5069402;28;20028;-84
2022/07/15 00:39:02;;;;;;;5.00;2.00;;;;;;;;;;5078742;28;20028;-84
2022/07/15 00:41:28;;;;;;;3.40;1.52;;;;;;;;;;5068287;28;20033;-84
2022/07/15 00:43:54;;;;;;;5.13;2.22;;;;;;;;;;5079016;28;20021;-85
2022/07/15 00:46:21;;;;;;;6.85;2.38;;;;;;;;;;5077998;28;20020;-83
2022/07/15 00:48:47;;;;;;;7.88;2.70;;;;;;;;;;5079914;28;20028;-83
2022/07/15 00:51:13;;;;;;;9.52;4.45;;;;;;;;;;5059990;28;20044;-83
2022/07/15 00:53:40;;;;;;;5.45;3.15;;;;;;;;;;5065340;28;20035;-83
2022/07/15 00:56:08;;;;;;;5.05;2.75;;;;;;;;;;5077582;28;20083;-82
2022/07/15 00:58:36;;;;;;;5.60;3.20;;;;;;;;;;5072333;28;20044;-81
2022/07/15 01:01:03;;;;;;;6.40;3.00;;;;;;;;;;5078224;28;20025;-81
2022/07/15 01:03:30;;;;;;;5.90;3.05;;;;;;;;;;5077508;28;20016;-80
2022/07/15 01:05:57;;;;;;;5.80;3.50;;;;;;;;;;5072878;28;20024;-80
2022/07/15 01:08:23;;;;;;;5.45;3.22;;;;;;;;;;5078425;28;20367;-80
2022/07/15 01:10:50;;;;;;;5.68;2.95;;;;;;;;;;5080294;28;20031;-80
2022/07/15 01:13:16;;;;;;;5.78;3.47;;;;;;;;;;5080493;28;20024;-80
2022/07/15 01:15:42;;;;;;;5.72;3.65;;;;;;;;;;5061401;28;20036;-81
2022/07/15 01:18:08;;;;;;;5.55;3.15;;;;;;;;;;5076610;28;20482;-81
2022/07/15 01:20:34;;;;;;;6.80;3.60;;;;;;;;;;5079835;28;20393;-81
2022/07/15 01:23:01;;;;;;;7.10;4.38;;;;;;;;;;5081408;28;20390;-81
2022/07/15 01:25:28;;;;;;;6.88;4.00;;;;;;;;;;5079781;28;20036;-81
2022/07/15 01:27:54;;;;;;;6.05;4.13;;;;;;;;;;5073199;28;20028;-81
2022/07/15 01:30:20;;;;;;;7.95;4.35;;;;;;;;;;5073979;28;20032;-81
2022/07/15 01:32:46;;;;;;;7.32;4.53;;;;;;;;;;5082474;28;20040;-81
2022/07/15 01:35:12;;;;;;;7.65;4.60;;;;;;;;;;5076099;28;20074;-82
2022/07/15 01:37:38;;;;;;;6.45;4.78;;;;;;;;;;5071216;28;20032;-81
2022/07/15 01:40:05;;;;;;;6.70;4.72;;;;;;;;;;5077897;28;20028;-82
2022/07/15 01:42:32;;;;;;;8.27;5.15;;;;;;;;;;5081795;28;20076;-81
2022/07/15 01:44:58;;;;;;;6.45;4.72;;;;;;;;;;5077688;28;20055;-80
2022/07/15 01:47:24;;;;;;;7.93;5.35;;;;;;;;;;5074696;28;20040;-80
2022/07/15 01:49:50;;;;;;;6.38;4.85;;;;;;;;;;5065684;28;20040;-80
2022/07/15 01:52:17;;;;;;;7.85;5.50;;;;;;;;;;5058216;28;20036;-80
2022/07/15 01:54:43;;;;;;;9.30;6.00;;;;;;;;;;5062267;28;20513;-80
2022/07/15 01:57:09;;;;;;;8.68;5.03;;;;;;;;;;5076963;28;20387;-81
2022/07/15 01:59:35;;;;;;;7.70;5.63;;;;;;;;;;5078826;28;20025;-82
2022/07/15 02:02:01;;;;;;;7.50;5.40;;;;;;;;;;5069767;28;20029;-81
2022/07/15 02:04:27;;;;;;;7.95;5.50;;;;;;;;;;5079793;28;20043;-82
2022/07/15 02:06:53;;;;;;;7.50;5.68;;;;;;;;;;5078422;28;20475;-80
2022/07/15 02:09:19;;;;;;;7.22;5.50;;;;;;;;;;5080306;28;20603;-81
2022/07/15 02:11:46;;;;;;;8.80;5.50;;;;;;;;;;5072542;28;20033;-80
2022/07/15 02:14:12;;;;;;;9.80;6.15;;;;;;;;;;5057946;28;20394;-80
2022/07/15 02:16:38;;;;;;;8.63;6.00;;;;;;;;;;5057866;28;20021;-79
2022/07/15 02:19:04;;;;;;;8.25;6.38;;;;;;;;;;5057955;28;20063;-80
2022/07/15 02:21:30;;;;;;;9.75;5.97;;;;;;;;;;5060926;28;20064;-80
2022/07/15 02:24:00;;;;;;;9.05;6.50;;;;;;;;;;5064500;28;20069;-80
2022/07/15 02:26:26;;;;;;;8.85;6.68;;;;;;;;;;5075427;28;20058;-80
2022/07/15 02:28:52;;;;;;;9.70;6.45;;;;;;;;;;5077282;28;20107;-81
2022/07/15 02:31:18;;;;;;;9.90;7.25;;;;;;;;;;5079811;28;20032;-80
2022/07/15 02:33:45;;;;;;;10.05;7.32;;;;;;;;;;5081167;28;20046;-80
2022/07/15 02:36:12;;;;;;;9.23;7.13;;;;;;;;;;5080777;28;20040;-80
2022/07/15 02:38:41;;;;;;;9.70;7.28;;;;;;;;;;5083985;28;20055;-80
2022/07/15 02:41:07;;;;;;;8.88;6.72;;;;;;;;;;5081783;28;20055;-80
2022/07/15 02:43:34;;;;;;;8.77;7.25;;;;;;;;;;5075557;28;20029;-82
2022/07/15 02:46:00;;;;;;;11.50;7.75;;;;;;;;;;5082555;28;20031;-80
2022/07/15 02:48:26;;;;;;;10.40;7.25;;;;;;;;;;5084164;28;20035;-80
2022/07/15 02:50:52;;;;;;;9.50;8.13;;;;;;;;;;5082909;28;20051;-81
2022/07/15 02:53:19;;;;;;;10.75;7.80;;;;;;;;;;5080364;28;20039;-80
2022/07/15 02:55:45;;;;;;;10.23;8.57;;;;;;;;;;5082300;28;20042;-80
2022/07/15 02:58:11;;;;;;;10.68;7.50;;;;;;;;;;5082422;28;20113;-80
2022/07/15 03:00:37;;;;;;;8.82;7.57;;;;;;;;;;5077832;28;20025;-81
2022/07/15 03:03:03;;;;;;;9.73;7.60;;;;;;;;;;5067424;28;20092;-81
2022/07/15 03:05:29;;;;;;;10.50;7.72;;;;;;;;;;5082842;28;20142;-80
2022/07/15 03:07:55;;;;;;;11.38;7.90;;;;;;;;;;5082398;28;20024;-81
2022/07/15 03:10:21;;;;;;;10.00;8.65;;;;;;;;;;5080078;28;20029;-81
2022/07/15 03:12:47;;;;;;;12.73;8.65;;;;;;;;;;5072649;28;20043;-80
2022/07/15 03:15:13;;;;;;;10.77;8.82;;;;;;;;;;5076517;28;20017;-80
2022/07/15 03:17:42;;;;;;;13.77;9.40;;;;;;;;;;5085518;28;20059;-81
2022/07/15 03:20:09;;;;;;;11.35;8.60;;;;;;;;;;5084694;28;20033;-81
2022/07/15 03:22:35;;;;;;;12.02;9.07;;;;;;;;;;5070413;28;20052;-80
2022/07/15 03:25:02;;;;;;;10.80;8.50;;;;;;;;;;5066699;28;20490;-81
2022/07/15 03:27:28;;;;;;;10.88;8.95;;;;;;;;;;5073521;28;20513;-81
2022/07/15 03:29:54;;;;;;;11.00;8.25;;;;;;;;;;5063898;28;20498;-81
2022/07/15 03:32:20;;;;;;;13.52;9.38;;;;;;;;;;5080533;28;20025;-82
2022/07/15 03:34:48;;;;;;;10.52;8.85;;;;;;;;;;5082392;28;20028;-81
2022/07/15 03:37:14;;;;;;;10.98;8.80;;;;;;;;;;5064916;28;20036;-85
2022/07/15 03:39:40;;;;;;;12.50;8.90;;;;;;;;;;5060885;28;20033;-81
2022/07/15 03:42:06;;;;;;;11.52;8.77;;;;;;;;;;5071479;28;20029;-82
2022/07/15 03:44:33;;;;;;;11.50;7.95;;;;;;;;;;5079263;28;20084;-82
2022/07/15 03:46:59;;;;;;;10.38;8.70;;;;;;;;;;5069413;28;20104;-81
2022/07/15 03:49:25;;;;;;;10.38;8.18;;;;;;;;;;5072831;28;20048;-82
2022/07/15 03:51:51;;;;;;;11.05;8.48;;;;;;;;;;5075694;28;20051;-82
2022/07/15 03:54:17;;;;;;;10.63;8.73;;;;;;;;;;5076061;28;20052;-82
2022/07/15 03:56:47;;;;;;;10.05;8.20;;;;;;;;;;5078456;28;20072;-83
2022/07/15 03:59:13;;;;;;;10.48;8.75;;;;;;;;;;5078807;28;20024;-82
2022/07/15 04:01:39;;;;;;;11.68;8.55;;;;;;;;;;5077695;28;20016;-82
2022/07/15 04:04:05;;;;;;;11.90;8.63;;;;;;;;;;5073949;28;20029;-84
2022/07/15 04:06:32;;;;;;;9.73;8.30;;;;;;;;;;5057216;28;20021;-83
2022/07/15 04:08:58;;;;;;;14.15;8.30;;;;;;;;;;5075688;28;20036;-83
2022/07/15 04:11:25;;;;;;;10.45;7.72;;;;;;;;;;5072356;28;20035;-84
2022/07/15 04:13:51;;;;;;;10.45;7.97;;;;;;;;;;5075054;28;20483;-83
2022/07/15 04:16:17;;;;;;;10.43;8.40;;;;;;;;;;5072782;28;20036;-84
2022/07/15 04:18:43;;;;;;;11.13;8.32;;;;;;;;;;5078344;28;20040;-84
2022/07/15 04:21:09;;;;;;;10.05;7.93;;;;;;;;;;5080119;28;20028;-84
2022/07/15 04:23:35;;;;;;;11.95;8.65;;;;;;;;;;5076007;28;20025;-86
2022/07/15 04:26:02;;;;;;;11.15;8.40;;;;;;;;;;5071723;28;20029;-85
2022/07/15 04:28:28;;;;;;;11.75;7.97;;;;;;;;;;5079050;28;20512;-85
2022/07/15 04:30:54;;;;;;;10.50;7.85;;;;;;;;;;5072487;28;20024;-85
2022/07/15 04:33:20;;;;;;;11.00;8.52;;;;;;;;;;5073205;28;20029;-84
2022/07/15 04:35:47;;;;;;;11.60;8.85;;;;;;;;;;5071505;28;20028;-85
2022/07/15 04:38:16;;;;;;;11.27;7.85;;;;;;;;;;5076609;28;20081;-84
2022/07/15 04:40:42;;;;;;;9.77;8.05;;;;;;;;;;5073561;28;20025;-85
2022/07/15 04:43:08;;;;;;;11.35;8.20;;;;;;;;;;5078778;28;20040;-85
2022/07/15 04:45:35;;;;;;;10.63;8.20;;;;;;;;;;5059512;28;20099;-85
2022/07/15 04:48:01;;;;;;;9.43;7.60;;;;;;;;;;5077879;28;20044;-85
2022/07/15 04:50:46;;;;;;;11.27;8.13;;;;;;;;;;5074882;28;20029;-84
2022/07/15 04:53:12;;;;;;;11.35;8.38;;;;;;;;;;5071267;28;20024;-86
2022/07/15 04:55:38;;;;;;;10.57;8.23;;;;;;;;;;5071294;28;20051;-87
2022/07/15 04:58:04;;;;;;;11.18;8.40;;;;;;;;;;5070239;28;20040;-87
2022/07/15 05:00:30;;;;;;;10.10;8.00;;;;;;;;;;5074390;28;20029;-86
2022/07/15 05:02:56;;;;;;;10.20;7.95;;;;;;;;;;5058658;28;20032;-84
2022/07/15 05:05:22;;;;;;;11.02;8.35;;;;;;;;;;5057689;28;20475;-85
2022/07/15 05:07:48;;;;;;;9.93;7.18;;;;;;;;;;5056824;28;20064;-85
2022/07/15 05:10:14;;;;;;;10.55;7.97;;;;;;;;;;5065817;28;20035;-85
2022/07/15 05:12:40;;;;;;;11.90;8.07;;;;;;;;;;5072879;28;20025;-86
2022/07/15 05:15:07;;;;;;;10.43;8.38;;;;;;;;;;5067359;28;20032;-85
2022/07/15 05:17:33;;;;;;;9.95;8.07;;;;;;;;;;5059436;28;20029;-86
2022/07/15 05:20:00;;;;;;;10.90;8.27;;;;;;;;;;5072091;28;20113;-85
2022/07/15 05:22:26;;;;;;;9.88;8.18;;;;;;;;;;5069237;28;20024;-86
2022/07/15 05:24:52;;;;;;;13.35;7.90;;;;;;;;;;5062718;28;20146;-84
2022/07/15 05:27:18;;;;;;;10.48;7.40;;;;;;;;;;5070398;28;20528;-85
2022/07/15 05:29:44;;;;;;;10.75;7.53;;;;;;;;;;5064410;28;20021;-86
2022/07/15 05:32:11;;;;;;;11.55;7.70;;;;;;;;;;5067756;28;20036;-85
2022/07/15 05:34:37;;;;;;;10.15;7.63;;;;;;;;;;5066329;28;20025;-86
2022/07/15 05:37:03;;;;;;;11.00;7.20;;;;;;;;;;5054995;28;20498;-86
2022/07/15 05:39:29;;;;;;;10.45;7.32;;;;;;;;;;5058787;28;20029;-86
2022/07/15 05:41:55;;;;;;;10.27;6.90;;;;;;;;;;5075247;28;20439;-86
2022/07/15 05:44:21;;;;;;;9.10;6.60;;;;;;;;;;5075243;28;20020;-87
2022/07/15 05:46:47;;;;;;;9.32;6.63;;;;;;;;;;5064113;28;20025;-87
2022/07/15 05:49:14;;;;;;;9.93;6.47;;;;;;;;;;5069043;28;20030;-86
2022/07/15 05:51:40;;;;;;;7.93;6.30;;;;;;;;;;5072135;28;20031;-86
2022/07/15 05:54:06;;;;;;;8.20;6.13;;;;;;;;;;5069158;28;20088;-86
2022/07/15 05:56:33;;;;;;;8.57;5.97;;;;;;;;;;5065666;28;20406;-85
2022/07/15 05:58:59;;;;;;;8.48;5.63;;;;;;;;;;5071827;28;20041;-86
2022/07/15 06:01:25;;;;;;;9.00;5.60;;;;;;;;;;5074254;28;20044;-86
2022/07/15 06:03:51;;;;;;;7.72;5.47;;;;;;;;;;5072107;28;20032;-86
2022/07/15 06:06:17;;;;;;;7.18;5.20;;;;;;;;;;5075109;28;20033;-86
2022/07/15 06:08:44;;;;;;;9.52;5.05;;;;;;;;;;5071784;28;20033;-86
2022/07/15 06:11:11;;;;;;;6.25;3.90;;;;;;;;;;5073951;28;20106;-86
2022/07/15 06:13:38;;;;;;;7.55;4.20;;;;;;;;;;5069793;28;20020;-85
2022/07/15 06:16:04;;;;;;;7.45;4.00;;;;;;;;;;5068576;28;20033;-86
2022/07/15 06:18:30;;;;;;;7.05;4.30;;;;;;;;;;5071914;28;20070;-86
2022/07/15 06:20:56;;;;;;;6.85;3.92;;;;;;;;;;5070750;28;20020;-86
2022/07/15 06:23:22;;;;;;;5.38;3.42;;;;;;;;;;5072245;28;20025;-86
2022/07/15 06:25:48;;;;;;;6.63;3.55;;;;;;;;;;5058951;28;20032;-84
2022/07/15 06:28:14;;;;;;;6.25;4.28;;;;;;;;;;5076896;28;20029;-85
2022/07/15 06:30:41;;;;;;;6.13;4.00;;;;;;;;;;5077336;28;20024;-84
2022/07/15 06:33:07;;;;;;;5.65;3.30;;;;;;;;;;5074197;28;20479;-84
2022/07/15 06:35:33;;;;;;;6.75;3.30;;;;;;;;;;5076124;28;20027;-85
2022/07/15 06:37:59;;;;;;;5.60;3.30;;;;;;;;;;5062935;28;20124;-85
2022/07/15 06:40:25;;;;;;;6.97;3.85;;;;;;;;;;5067664;28;20059;-84
2022/07/15 06:42:51;;;;;;;5.18;3.28;;;;;;;;;;5071383;28;20020;-85
2022/07/15 06:45:17;;;;;;;7.80;3.88;;;;;;;;;;5063904;28;20036;-85
2022/07/15 06:47:43;;;;;;;5.57;3.20;;;;;;;;;;5073954;28;20071;-86
2022/07/15 06:50:10;;;;;;;5.45;2.80;;;;;;;;;;5075938;28;20028;-85
2022/07/15 06:52:36;;;;;;;5.90;2.60;;;;;;;;;;5064838;28;20025;-85
2022/07/15 06:55:03;;;;;;;4.68;2.47;;;;;;;;;;5055364;28;20127;-84
2022/07/15 06:57:29;;;;;;;4.00;2.30;;;;;;;;;;5059117;28;20041;-84
2022/07/15 06:59:58;;;;;;;5.35;2.38;;;;;;;;;;5076660;28;20398;-82
2022/07/15 07:02:24;;;;;;;4.50;2.35;;;;;;;;;;5085758;28;20020;-85
2022/07/15 07:04:50;;;;;;;5.45;2.40;;;;;;;;;;5073631;28;20021;-85
2022/07/15 07:07:16;;;;;;;4.97;2.10;;;;;;;;;;5075532;28;20040;-82
2022/07/15 07:09:42;;;;;;;6.55;2.45;;;;;;;;;;5075064;28;20116;-81
2022/07/15 07:12:08;;;;;;;4.82;2.50;;;;;;;;;;5067999;28;20068;-84
2022/07/15 07:14:35;;;;;;;7.10;2.40;;;;;;;;;;5058570;28;20104;-85
2022/07/15 07:17:01;;;;;;;6.57;2.97;;;;;;;;;;5060146;28;20021;-85
2022/07/15 07:19:27;;;;;;;4.00;1.98;;;;;;;;;;5060063;28;20123;-85
2022/07/15 07:21:53;;;;;;;3.97;2.00;;;;;;;;;;5061167;28;20060;-84
2022/07/15 07:24:19;;;;;;;4.10;2.20;;;;;;;;;;5079256;28;20032;-84
2022/07/15 07:26:45;;;;;;;5.07;2.38;;;;;;;;;;5079550;28;20028;-81
2022/07/15 07:29:12;;;;;;;6.65;2.30;;;;;;;;;;5084731;28;20028;-84
2022/07/15 07:31:38;;;;;;;4.63;1.90;;;;;;;;;;5092546;28;20025;-84
2022/07/15 07:34:04;;;;;;;6.15;2.47;;;;;;;;;;5064782;28;20048;-84
2022/07/15 07:36:30;;;;;;;5.68;2.17;;;;;;;;;;5071853;28;20025;-84
2022/07/15 07:38:56;;;;;;;3.72;1.83;;;;;;;;;;5068885;28;20028;-83
2022/07/15 07:41:22;;;;;;;5.93;2.50;;;;;;;;;;5079354;28;20012;-85
2022/07/15 07:43:49;;;;;;;4.30;1.90;;;;;;;;;;5068045;28;20052;-84
2022/07/15 07:46:16;;;;;;;4.68;2.00;;;;;;;;;;5072721;28;20017;-83
2022/07/15 07:48:42;;;;;;;3.90;2.00;;;;;;;;;;5076868;28;20047;-84
2022/07/15 07:51:09;;;;;;;5.13;1.98;;;;;;;;;;5073354;28;20478;-84
2022/07/15 07:53:35;;;;;;;3.65;1.75;;;;;;;;;;5073425;28;20486;-84
2022/07/15 07:56:01;;;;;;;5.00;1.80;;;;;;;;;;5075754;28;20093;-85
2022/07/15 07:58:27;;;;;;;5.63;2.00;;;;;;;;;;5078482;28;20029;-85
2022/07/15 08:00:55;;;;;;;6.03;2.42;;;;;;;;;;5080131;28;20029;-84
2022/07/15 08:03:21;;;;;;;4.57;1.50;;;;;;;;;;5067464;28;20028;-81
2022/07/15 08:05:47;;;;;;;7.25;1.70;;;;;;;;;;5073729;28;20799;-82
2022/07/15 08:08:15;;;;;;;4.70;1.75;;;;;;;;;;5073439;28;20502;-81
2022/07/15 08:10:42;;;;;;;5.65;1.77;;;;;;;;;;5075169;28;20032;-81
2022/07/15 08:13:08;;;;;;;4.13;1.58;;;;;;;;;;5077086;28;20025;-82
2022/07/15 08:15:34;;;;;;;4.20;1.40;;;;;;;;;;5065032;28;20029;-82
2022/07/15 08:18:01;;;;;;;4.05;1.60;;;;;;;;;;5076504;28;20073;-81
2022/07/15 08:20:27;;;;;;;4.40;1.50;;;;;;;;;;5078933;28;20034;-81
2022/07/15 08:22:58;;;;;;;4.10;1.63;;;;;;;;;;5076184;28;20486;-80
2022/07/15 08:25:25;;;;;;;4.70;1.80;;;;;;;;;;5078404;28;20016;-81
2022/07/15 08:27:51;;;;;;;4.68;1.48;;;;;;;;;;5076011;28;20025;-81
2022/07/15 08:30:17;;;;;;;4.07;2.10;;;;;;;;;;5076081;28;20021;-81
2022/07/15 08:32:43;;;;;;;4.13;1.83;;;;;;;;;;5077380;28;20056;-80
2022/07/15 08:35:09;;;;;;;4.97;1.70;;;;;;;;;;5073490;28;20040;-81
2022/07/15 08:37:36;;;;;;;3.95;1.70;;;;;;;;;;5071225;28;20036;-81
2022/07/15 08:40:03;;;;;;;5.85;1.88;;;;;;;;;;5076267;28;20028;-80
2022/07/15 08:42:29;;;;;;;6.22;1.92;;;;;;;;;;5075621;28;20094;-83
2022/07/15 08:44:55;;;;;;;3.28;1.25;;;;;;;;;;5076713;28;20028;-85
2022/07/15 08:47:24;;;;;;;5.10;2.05;;;;;;;;;;5076712;28;20017;-81
2022/07/15 08:49:54;;;;;;;4.28;1.55;;;;;;;;;;5077324;28;20031;-82
2022/07/15 08:52:20;;;;;;;3.72;1.52;;;;;;;;;;5078086;28;20084;-82
2022/07/15 08:54:46;;;;;;;4.00;1.63;;;;;;;;;;5076561;28;20027;-82
2022/07/15 08:57:14;;;;;;;4.18;1.52;;;;;;;;;;5074742;28;20066;-81
2022/07/15 08:59:42;;;;;;;5.20;1.70;;;;;;;;;;5057723;28;20041;-82
2022/07/15 09:02:10;;;;;;;4.57;1.70;;;;;;;;;;5078281;28;20439;-83
2022/07/15 09:04:56;;;;;;;3.88;1.60;;;;;;;;;;5076922;28;20018;-81
2022/07/15 09:07:22;;;;;;;6.50;1.60;;;;;;;;;;5076631;28;20521;-82
2022/07/15 09:09:48;;;;;;;4.95;1.55;;;;;;;;;;5071748;28;20021;-82
2022/07/15 09:12:14;;;;;;;5.35;1.67;;;;;;;;;;5077433;28;20020;-81
2022/07/15 09:14:44;;;;;;;4.68;1.80;;;;;;;;;;5079787;28;20024;-82
2022/07/15 09:17:10;;;;;;;4.00;1.65;;;;;;;;;;5080575;28;20847;-81
2022/07/15 09:19:55;;;;;;;4.05;1.67;;;;;;;;;;5066809;28;20049;-82
2022/07/15 09:22:21;;;;;;;4.32;1.60;;;;;;;;;;5057530;28;20100;-81
2022/07/15 09:24:50;;;;;;;3.60;1.60;;;;;;;;;;5067037;28;20130;-80
2022/07/15 09:27:33;;;;;;;3.25;1.40;;;;;;;;;;5076588;28;20036;-81
2022/07/15 09:36:02;;;;;;;4.47;1.60;;;;;;;;;;5077887;28;20157;-81
2022/07/15 09:38:30;;;;;;;4.03;1.80;;;;;;;;;;5067201;28;20050;-81
2022/07/15 09:40:56;;;;;;;3.83;1.70;;;;;;;;;;5077542;28;20096;-81
2022/07/15 09:43:22;;;;;;;4.05;1.65;;;;;;;;;;5068759;28;20052;-81
2022/07/15 09:45:56;;;;;;;4.78;1.83;;;;;;;;;;5067851;28;20020;-81
2022/07/15 09:48:24;;;;;;;4.20;1.50;;;;;;;;;;5074352;28;20111;-83
2022/07/15 09:50:50;;;;;;;4.45;1.85;;;;;;;;;;5075281;28;20458;-83
2022/07/15 09:53:16;;;;;;;5.28;1.90;;;;;;;;;;5076372;28;20032;-83
2022/07/15 09:55:42;;;;;;;3.75;1.92;;;;;;;;;;5078231;28;20025;-82
2022/07/15 09:58:08;;;;;;;4.05;1.88;;;;;;;;;;5076629;28;20029;-81
2022/07/15 10:00:39;;;;;;;3.67;1.70;;;;;;;;;;5070546;28;20045;-81
2022/07/15 10:03:05;;;;;;;3.70;1.65;;;;;;;;;;5070908;28;20073;-82
2022/07/15 10:05:32;;;;;;;4.93;2.05;;;;;;;;;;5075164;28;20445;-82
2022/07/15 10:08:01;;;;;;;5.47;1.98;;;;;;;;;;5073858;28;20457;-81
2022/07/15 10:10:27;;;;;;;4.13;1.95;;;;;;;;;;5071369;28;20049;-81
2022/07/15 10:12:53;;;;;;;3.70;2.10;;;;;;;;;;5060319;28;20025;-81
2022/07/15 10:15:28;;;;;;;4.45;2.00;;;;;;;;;;5070060;28;20117;-81
2022/07/15 10:18:13;;;;;;;4.38;2.10;;;;;;;;;;5067830;28;20103;-82
2022/07/15 10:20:55;;;;;;;4.18;2.10;;;;;;;;;;5066094;28;20021;-81
2022/07/15 10:23:40;;;;;;;4.22;2.05;;;;;;;;;;5058148;28;20021;-83
2022/07/15 10:26:09;;;;;;;6.45;2.30;;;;;;;;;;5076035;28;20032;-83
2022/07/15 10:28:51;;;;;;;4.68;2.10;;;;;;;;;;5076006;28;20052;-82
2022/07/15 10:31:21;;;;;;;4.00;2.22;;;;;;;;;;5061195;28;20032;-80
2022/07/15 10:34:10;;;;;;;4.70;2.20;;;;;;;;;;5076514;28;20020;-81
2022/07/15 10:36:53;;;;;;;4.00;2.05;;;;;;;;;;5065017;28;20025;-82
2022/07/15 10:39:21;;;;;;;4.50;2.20;;;;;;;;;;5071115;28;20033;-82
2022/07/15 10:41:48;;;;;;;4.10;2.10;;;;;;;;;;5068465;28;20025;-81
2022/07/15 10:44:14;;;;;;;6.00;2.38;;;;;;;;;;5063220;28;20043;-82
2022/07/15 10:46:40;;;;;;;4.43;2.00;;;;;;;;;;5074725;28;20032;-81
2022/07/15 10:49:06;;;;;;;4.55;2.10;;;;;;;;;;5077149;28;20036;-82
2022/07/15 10:51:39;;;;;;;4.82;2.20;;;;;;;;;;5076678;28;20036;-81
2022/07/15 10:54:05;;;;;;;5.80;2.08;;;;;;;;;;5081106;28;20038;-81
2022/07/15 10:56:34;;;;;;;4.13;1.83;;;;;;;;;;5070396;28;20033;-81
2022/07/15 10:59:09;;;;;;;4.97;1.77;;;;;;;;;;5065365;28;20402;-81
2022/07/15 11:01:39;;;;;;;4.53;1.92;;;;;;;;;;5070181;28;20040;-81
2022/07/15 11:04:14;;;;;;;4.28;1.95;;;;;;;;;;5071005;28;20116;-82
2022/07/15 11:06:59;;;;;;;6.32;2.78;;;;;;;;;;5083315;28;20100;-82
2022/07/15 11:09:43;;;;;;;6.40;2.33;;;;;;;;;;5073708;28;20517;-82
2022/07/15 11:12:11;;;;;;;6.50;1.95;;;;;;;;;;5077457;28;20035;-82
2022/07/15 11:14:58;;;;;;;4.72;2.50;;;;;;;;;;5075566;28;20542;-81
2022/07/15 11:17:46;;;;;;;4.75;2.13;;;;;;;;;;5071900;28;20037;-82
2022/07/15 11:20:13;;;;;;;5.00;1.80;;;;;;;;;;5075339;28;20147;-81
2022/07/15 11:22:43;;;;;;;4.93;1.98;;;;;;;;;;5076276;28;20699;-81
2022/07/15 11:25:21;;;;;;;5.20;2.00;;;;;;;;;;5077265;28;20024;-82
2022/07/15 11:27:59;;;;;;;4.30;2.03;;;;;;;;;;5080159;28;20091;-82
2022/07/15 11:30:26;;;;;;;6.60;2.03;;;;;;;;;;5063211;28;20021;-83
2022/07/15 11:32:59;;;;;;;5.20;2.25;;;;;;;;;;5076678;28;20086;-80
2022/07/15 11:35:26;;;;;;;5.85;2.13;;;;;;;;;;5069307;28;20025;-84
2022/07/15 11:38:00;;;;;;;4.47;1.95;;;;;;;;;;5075682;28;20028;-82
2022/07/15 11:46:05;;;;;;;4.38;1.90;;;;;;;;;;5072059;28;20040;-82
2022/07/15 11:48:38;;;;;;;4.07;2.17;;;;;;;;;;5073208;28;20020;-82
2022/07/15 11:51:04;;;;;;;;;;;;;;;;;;5067269;28;20021;-83
2022/07/15 11:53:34;;;;;;;4.70;1.83;;;;;;;;;;5067225;28;19915;-83
2022/07/15 11:56:00;;;;;;;4.60;1.88;;;;;;;;;;5065292;28;20144;-81
2022/07/15 11:58:31;;;;;;;5.85;1.73;;;;;;;;;;5066731;28;20454;-82
2022/07/15 12:00:57;;;;;;;4.65;1.90;;;;;;;;;;5073306;28;20339;-81
2022/07/15 12:03:23;;;;;;;4.80;2.10;;;;;;;;;;5057411;28;20479;-82
2022/07/15 12:05:59;;;;;;;4.20;2.05;;;;;;;;;;5075771;28;20077;-81
2022/07/15 12:08:40;;;;;;;4.63;2.20;;;;;;;;;;5078700;28;20036;-82
2022/07/15 12:11:10;;;;;;;4.38;2.10;;;;;;;;;;5074430;28;20055;-82
2022/07/15 12:13:43;;;;;;;4.90;2.90;;;;;;;;;;5068353;28;20052;-82
2022/07/15 12:16:09;;;;;;;3.92;2.15;;;;;;;;;;5069663;28;20063;-83
2022/07/15 12:18:36;;;;;;;4.60;1.63;;;;;;;;;;5076165;28;20033;-82
2022/07/15 12:21:02;;;;;;;4.18;2.10;;;;;;;;;;5074931;28;20025;-82
2022/07/15 12:23:28;;;;;;;6.82;2.65;;;;;;;;;;5074210;28;20082;-82
2022/07/15 12:26:07;;;;;;;4.47;2.00;;;;;;;;;;5078294;28;20028;-83
2022/07/15 12:28:34;;;;;;;4.40;2.28;;;;;;;;;;5062230;28;20036;-80
2022/07/15 12:31:00;;;;;;;3.92;1.63;;;;;;;;;;5059367;28;20021;-82
2022/07/15 12:33:27;;;;;;;4.65;1.90;;;;;;;;;;5080357;28;20075;-80
2022/07/15 12:36:16;;;;;;;4.85;2.03;;;;;;;;;;5080217;28;20024;-81
2022/07/15 12:38:42;;;;;;;3.83;1.85;;;;;;;;;;5077480;28;20034;-82
2022/07/15 12:41:10;;;;;;;4.03;1.70;;;;;;;;;;5079602;28;20020;-81
2022/07/15 12:43:47;;;;;;;5.78;1.95;;;;;;;;;;5065461;28;20450;-81
2022/07/15 12:46:13;;;;;;;4.40;1.95;;;;;;;;;;5073073;28;20024;-83
2022/07/15 12:48:46;;;;;;;4.10;1.92;;;;;;;;;;5078228;28;20085;-81
2022/07/15 12:51:12;;;;;;;3.92;1.88;;;;;;;;;;5077579;28;20029;-82
2022/07/15 12:53:39;;;;;;;4.10;1.65;;;;;;;;;;5061503;28;20062;-82
2022/07/15 12:56:06;;;;;;;5.57;2.03;;;;;;;;;;5058229;28;20052;-82
2022/07/15 12:58:34;;;;;;;4.43;1.70;;;;;;;;;;5058725;28;20029;-82
2022/07/15 13:01:04;;;;;;;4.90;1.90;;;;;;;;;;5060088;28;20055;-82
2022/07/15 13:03:30;;;;;;;4.07;1.85;;;;;;;;;;5069458;28;20089;-83
2022/07/15 13:05:58;;;;;;;5.55;2.08;;;;;;;;;;5078396;28;20212;-82
2022/07/15 13:08:25;;;;;;;4.78;2.00;;;;;;;;;;5071457;28;20025;-82
2022/07/15 13:10:55;;;;;;;4.07;1.80;;;;;;;;;;5080974;28;20036;-82
2022/07/15 13:13:22;;;;;;;4.63;1.73;;;;;;;;;;5065287;28;20029;-82
2022/07/15 13:15:49;;;;;;;3.85;1.60;;;;;;;;;;5076844;28;20091;-82
2022/07/15 13:18:16;;;;;;;3.55;1.60;;;;;;;;;;5071580;28;20036;-81
2022/07/15 13:20:42;;;;;;;6.25;1.98;;;;;;;;;;5077739;28;20021;-81
2022/07/15 13:23:09;;;;;;;4.38;2.00;;;;;;;;;;5077624;28;20060;-82
2022/07/15 13:25:36;;;;;;;4.28;1.67;;;;;;;;;;5077877;28;20323;-82
2022/07/15 13:28:05;;;;;;;4.18;1.90;;;;;;;;;;5078394;28;20028;-82
2022/07/15 13:30:31;;;;;;;4.53;2.00;;;;;;;;;;5077622;28;20032;-81
2022/07/15 13:32:57;;;;;;;4.30;2.00;;;;;;;;;;5076201;28;20036;-82
2022/07/15 13:35:23;;;;;;;3.95;2.00;;;;;;;;;;5077653;28;20028;-82
2022/07/15 13:37:50;;;;;;;4.38;2.00;;;;;;;;;;5077436;28;20020;-81
2022/07/15 13:40:16;;;;;;;4.07;1.95;;;;;;;;;;5077320;28;20020;-82
2022/07/15 13:42:42;;;;;;;4.22;1.90;;;;;;;;;;5075203;28;20486;-82
2022/07/15 13:45:09;;;;;;;5.95;2.25;;;;;;;;;;5076434;28;20030;-82
2022/07/15 13:47:35;;;;;;;4.60;2.22;;;;;;;;;;5076124;28;20020;-81
2022/07/15 13:52:47;;;;;;;5.15;1.77;;;;;;;;;;5076850;28;20035;-81
2022/07/15 13:55:14;;;;;;;3.60;1.90;;;;;;;;;;5072458;28;20021;-82
2022/07/15 13:57:40;;;;;;;5.90;2.20;;;;;;;;;;5074070;28;20048;-81
2022/07/15 14:00:08;;;;;;;5.13;2.03;;;;;;;;;;5076243;28;20021;-83
2022/07/15 14:02:34;;;;;;;5.32;2.15;;;;;;;;;;5069782;28;20017;-81
2022/07/15 14:05:00;;;;;;;4.43;1.90;;;;;;;;;;5069391;28;20029;-82
2022/07/15 14:07:26;;;;;;;4.60;2.20;;;;;;;;;;5077204;28;20023;-84
2022/07/15 14:09:53;;;;;;;5.32;2.13;;;;;;;;;;5078444;28;20035;-82
2022/07/15 14:12:19;;;;;;;6.28;2.30;;;;;;;;;;5079398;28;20099;-82
2022/07/15 14:14:45;;;;;;;4.68;2.22;;;;;;;;;;5063721;28;20550;-80
2022/07/15 14:17:11;;;;;;;5.50;1.80;;;;;;;;;;5075116;28;20055;-82
2022/07/15 14:19:37;;;;;;;5.00;2.25;;;;;;;;;;5079446;28;20025;-83
2022/07/15 14:22:03;;;;;;;5.72;2.30;;;;;;;;;;5080337;28;20585;-82
2022/07/15 14:24:29;;;;;;;4.90;2.20;;;;;;;;;;5077271;28;20043;-82
2022/07/15 14:26:55;;;;;;;4.97;2.20;;;;;;;;;;5080161;28;20017;-82
2022/07/15 14:29:21;;;;;;;4.78;2.08;;;;;;;;;;5077350;28;20094;-82
2022/07/15 14:31:47;;;;;;;4.97;2.03;;;;;;;;;;5080832;28;20132;-83
2022/07/15 14:34:14;;;;;;;6.22;2.40;;;;;;;;;;5081708;28;20367;-84
2022/07/15 14:36:41;;;;;;;4.72;2.28;;;;;;;;;;5081241;28;20478;-84
2022/07/15 14:39:07;;;;;;;4.75;2.00;;;;;;;;;;5078506;28;20092;-82
2022/07/15 14:41:34;;;;;;;4.85;2.35;;;;;;;;;;5081000;28;20017;-82
2022/07/15 14:44:00;;;;;;;5.05;2.10;;;;;;;;;;5079625;28;20051;-82
2022/07/15 14:46:27;;;;;;;5.57;2.20;;;;;;;;;;5069105;28;20081;-83
2022/07/15 14:48:53;;;;;;;4.60;1.95;;;;;;;;;;5081336;28;20103;-82
2022/07/15 14:51:19;;;;;;;5.13;2.80;;;;;;;;;;5080007;28;20496;-82
2022/07/15 14:53:45;;;;;;;5.30;2.10;;;;;;;;;;5081291;28;20030;-83
2022/07/15 14:56:11;;;;;;;5.13;1.85;;;;;;;;;;5079918;28;20056;-83
2022/07/15 14:58:37;;;;;;;4.45;2.10;;;;;;;;;;5080126;28;20033;-83
2022/07/15 15:01:03;;;;;;;4.00;1.98;;;;;;;;;;5080577;28;20032;-83